Time;durP1;ratioP1;P1;durP2;ratioP2;P2;SDS_P1;SDS_P2;PMS_P1;PMS_P2;Temp;Humidity;BMP_temperature;BMP_pressure;BME280_temperature;BME280_humidity;BME280_pressure;Samples;Min_cycle;Max_cycle;Signal;HPM_P1;HPM_P2
2021/03/30 00:01:12;;;;;;;2.65;2.13;;;11.90;99.90;;;;;;4837280;29;20447;-76
2021/03/30 00:03:38;;;;;;;3.60;2.10;;;11.90;99.90;;;;;;4835402;29;20477;-76
2021/03/30 00:06:03;;;;;;;2.13;1.92;;;11.90;99.90;;;;;;4851401;29;20414;-79
2021/03/30 00:08:29;;;;;;;5.10;2.07;;;11.80;99.90;;;;;;4852880;29;20485;-77
2021/03/30 00:10:55;;;;;;;3.22;2.00;;;11.70;99.90;;;;;;4837293;29;20420;-75
2021/03/30 00:13:21;;;;;;;3.63;2.33;;;11.70;99.90;;;;;;4845869;29;20414;-75
2021/03/30 00:15:47;;;;;;;2.42;1.80;;;11.70;99.90;;;;;;4837234;29;20485;-75
2021/03/30 00:18:13;;;;;;;2.20;2.00;;;11.70;99.90;;;;;;4838480;29;20824;-78
2021/03/30 00:20:38;;;;;;;2.80;2.30;;;11.60;99.90;;;;;;4841765;29;20406;-76
2021/03/30 00:23:04;;;;;;;3.25;2.05;;;11.60;99.90;;;;;;4821023;29;20430;-74
2021/03/30 00:25:30;;;;;;;3.10;2.47;;;11.60;99.90;;;;;;4823175;29;20772;-73
2021/03/30 00:27:56;;;;;;;3.25;2.00;;;11.60;99.90;;;;;;4835646;29;20421;-77
2021/03/30 00:30:22;;;;;;;4.80;2.10;;;11.60;99.90;;;;;;4852095;29;20470;-78
2021/03/30 00:32:47;;;;;;;2.70;2.07;;;11.50;99.90;;;;;;4840406;29;20410;-76
2021/03/30 00:36:00;;;;;;;3.08;2.00;;;11.40;99.90;;;;;;4837166;29;20428;-76
2021/03/30 00:38:25;;;;;;;2.28;2.00;;;11.30;99.90;;;;;;4839481;29;20522;-75
2021/03/30 00:40:52;;;;;;;2.28;2.08;;;11.20;99.90;;;;;;4838108;29;20495;-74
2021/03/30 00:43:18;;;;;;;3.40;1.85;;;11.20;99.90;;;;;;4853613;29;20422;-77
2021/03/30 00:45:44;;;;;;;1.97;1.80;;;11.10;99.90;;;;;;4833902;29;20431;-75
2021/03/30 00:48:18;;;;;;;2.20;2.00;;;11.00;99.90;;;;;;4837719;29;20404;-78
2021/03/30 00:50:44;;;;;;;2.13;1.77;;;11.00;99.90;;;;;;4849193;29;20457;-80
2021/03/30 00:53:29;;;;;;;1.95;1.83;;;10.90;99.90;;;;;;4844938;29;20470;-77
2021/03/30 00:56:15;;;;;;;4.85;2.05;;;10.90;99.90;;;;;;4817569;29;20429;-75
2021/03/30 00:58:40;;;;;;;2.97;1.97;;;10.80;99.90;;;;;;4839762;29;20414;-77
2021/03/30 01:01:06;;;;;;;2.00;1.88;;;10.80;99.90;;;;;;4839768;29;20414;-79
2021/03/30 01:03:32;;;;;;;2.10;1.87;;;10.70;99.90;;;;;;4843520;29;20941;-78
2021/03/30 01:05:57;;;;;;;3.78;2.10;;;10.80;99.90;;;;;;4854445;29;20406;-74
2021/03/30 01:08:42;;;;;;;2.63;2.00;;;10.60;99.90;;;;;;4839871;29;20413;-76
2021/03/30 01:11:33;;;;;;;2.05;1.85;;;10.60;99.90;;;;;;4851625;29;20418;-76
2021/03/30 01:14:19;;;;;;;2.15;1.95;;;10.50;99.90;;;;;;4838492;29;20493;-82
2021/03/30 01:16:51;;;;;;;2.25;1.77;;;10.50;99.90;;;;;;4833718;29;20422;-80
2021/03/30 01:19:29;;;;;;;2.30;1.93;;;10.40;99.90;;;;;;4837138;29;20442;-79
2021/03/30 01:22:20;;;;;;;2.10;1.90;;;10.40;99.90;;;;;;4864718;29;20532;-77
2021/03/30 01:24:48;;;;;;;2.53;1.90;;;10.40;99.90;;;;;;4861060;29;20945;-78
2021/03/30 01:27:28;;;;;;;2.53;1.92;;;10.30;99.90;;;;;;4854511;29;20421;-78
2021/03/30 01:29:54;;;;;;;2.05;1.77;;;10.30;99.90;;;;;;4853505;29;20438;-75
2021/03/30 01:32:40;;;;;;;2.03;1.83;;;10.20;99.90;;;;;;4846160;29;20404;-76
2021/03/30 01:35:09;;;;;;;2.10;1.90;;;10.20;99.90;;;;;;4851984;29;20487;-79
2021/03/30 01:37:38;;;;;;;2.85;1.92;;;10.10;99.90;;;;;;4838771;29;20780;-78
2021/03/30 01:40:05;;;;;;;1.77;1.67;;;10.10;99.90;;;;;;4851923;29;20443;-78
2021/03/30 01:42:30;;;;;;;1.98;1.75;;;10.00;99.90;;;;;;4839033;29;20411;-78
2021/03/30 01:44:56;;;;;;;1.80;1.70;;;10.00;99.90;;;;;;4838777;29;20450;-77
2021/03/30 01:47:22;;;;;;;1.80;1.70;;;9.90;99.90;;;;;;4823246;29;20411;-78
2021/03/30 01:49:48;;;;;;;2.38;1.90;;;9.90;99.90;;;;;;4853745;29;20765;-75
2021/03/30 01:52:15;;;;;;;4.03;2.22;;;9.80;99.90;;;;;;4854066;29;20471;-76
2021/03/30 01:54:41;;;;;;;4.20;2.30;;;9.80;99.90;;;;;;4833346;29;20457;-77
2021/03/30 01:57:07;;;;;;;2.78;2.10;;;9.80;99.90;;;;;;4832564;29;20470;-82
2021/03/30 01:59:33;;;;;;;2.15;1.98;;;9.80;99.90;;;;;;4841173;29;20432;-78
2021/03/30 02:01:59;;;;;;;2.65;2.00;;;9.70;99.90;;;;;;4852671;29;20415;-76
2021/03/30 02:04:25;;;;;;;2.50;2.05;;;9.70;99.90;;;;;;4838077;29;20430;-77
2021/03/30 02:06:51;;;;;;;3.23;2.10;;;9.70;99.90;;;;;;4853876;29;20425;-74
2021/03/30 02:09:21;;;;;;;2.97;2.00;;;9.60;99.90;;;;;;4838078;29;20473;-76
2021/03/30 02:11:52;;;;;;;2.38;1.92;;;9.60;99.90;;;;;;4831840;29;20848;-79
2021/03/30 02:14:18;;;;;;;3.17;2.30;;;9.60;99.90;;;;;;4834648;29;21014;-75
2021/03/30 02:17:06;;;;;;;2.30;2.10;;;9.60;99.90;;;;;;4852717;29;20508;-75
2021/03/30 02:19:51;;;;;;;3.45;2.20;;;9.60;99.90;;;;;;4854155;29;20964;-77
2021/03/30 02:22:24;;;;;;;1.90;1.80;;;9.60;99.90;;;;;;4837645;29;20406;-79
2021/03/30 02:24:50;;;;;;;1.88;1.75;;;9.60;99.90;;;;;;4828209;29;20437;-75
2021/03/30 02:27:16;;;;;;;2.35;2.08;;;9.60;99.90;;;;;;4856927;29;20417;-76
2021/03/30 02:29:42;;;;;;;2.20;1.95;;;9.60;99.90;;;;;;4842057;29;20407;-75
2021/03/30 02:32:11;;;;;;;3.10;2.47;;;9.50;99.90;;;;;;4853752;29;20419;-78
2021/03/30 02:34:37;;;;;;;4.03;2.20;;;9.50;99.90;;;;;;4852580;29;20534;-77
2021/03/30 02:37:03;;;;;;;4.38;2.42;;;9.50;99.90;;;;;;4838072;29;20516;-77
2021/03/30 02:39:29;;;;;;;2.33;1.90;;;9.40;99.90;;;;;;4829043;29;20421;-77
2021/03/30 02:41:55;;;;;;;2.60;2.33;;;9.40;99.90;;;;;;4837342;29;20422;-77
2021/03/30 02:44:21;;;;;;;1.90;1.80;;;9.50;99.90;;;;;;4833836;29;20483;-76
2021/03/30 02:46:47;;;;;;;2.63;2.20;;;9.30;99.90;;;;;;4867252;29;20791;-75
2021/03/30 02:49:14;;;;;;;2.00;1.90;;;9.30;99.90;;;;;;4828414;29;20991;-75
2021/03/30 02:51:40;;;;;;;2.63;2.03;;;9.20;99.90;;;;;;4837891;29;20902;-76
2021/03/30 02:54:07;;;;;;;2.33;2.13;;;9.20;99.90;;;;;;4839023;29;20410;-78
2021/03/30 02:56:33;;;;;;;2.63;2.10;;;9.10;99.90;;;;;;4834175;29;20921;-77
2021/03/30 02:58:58;;;;;;;3.60;2.30;;;9.10;99.90;;;;;;4837840;29;20418;-76
2021/03/30 03:01:24;;;;;;;2.10;1.90;;;9.00;99.90;;;;;;4834714;29;20516;-81
2021/03/30 03:03:50;;;;;;;2.10;1.80;;;9.00;99.90;;;;;;4821161;29;20426;-75
2021/03/30 03:06:16;;;;;;;2.50;1.88;;;9.00;99.90;;;;;;4823318;29;20411;-77
2021/03/30 03:08:42;;;;;;;2.10;1.90;;;8.90;99.90;;;;;;4826365;29;20414;-78
2021/03/30 03:11:08;;;;;;;2.73;1.67;;;9.00;99.90;;;;;;4840336;29;25934;-77
2021/03/30 03:13:34;;;;;;;2.20;2.00;;;8.90;99.90;;;;;;4836486;29;20942;-80
2021/03/30 03:15:59;;;;;;;2.28;2.00;;;8.90;99.90;;;;;;4851321;29;20423;-77
2021/03/30 03:18:25;;;;;;;2.27;2.07;;;8.80;99.90;;;;;;4836593;29;20804;-77
2021/03/30 03:20:51;;;;;;;2.10;1.90;;;8.80;99.90;;;;;;4852872;29;20813;-79
2021/03/30 03:23:16;;;;;;;2.20;2.00;;;8.70;99.90;;;;;;4834805;29;20451;-75
2021/03/30 03:25:46;;;;;;;3.20;2.10;;;8.60;99.90;;;;;;4840450;29;20940;-77
2021/03/30 03:28:12;;;;;;;4.43;1.95;;;8.60;99.90;;;;;;4835829;29;20425;-81
2021/03/30 03:30:39;;;;;;;1.50;1.40;;;8.50;99.90;;;;;;4854173;29;20424;-77
2021/03/30 03:33:09;;;;;;;3.05;2.30;;;8.50;99.90;;;;;;4853445;29;20416;-77
2021/03/30 03:35:35;;;;;;;2.92;2.53;;;8.50;99.90;;;;;;4836915;29;20430;-78
2021/03/30 03:38:02;;;;;;;3.42;2.38;;;8.50;99.90;;;;;;4836502;29;20432;-77
2021/03/30 03:40:28;;;;;;;2.50;2.30;;;8.40;99.90;;;;;;4835697;29;20414;-79
2021/03/30 03:42:54;;;;;;;4.35;2.25;;;8.40;99.90;;;;;;4836543;29;20424;-77
2021/03/30 03:45:20;;;;;;;5.60;2.15;;;8.40;99.90;;;;;;4833160;29;20436;-76
2021/03/30 03:47:46;;;;;;;2.40;2.20;;;8.30;99.90;;;;;;4826132;29;20438;-79
2021/03/30 03:50:12;;;;;;;2.10;2.00;;;8.30;99.90;;;;;;4837167;29;20406;-78
2021/03/30 03:52:41;;;;;;;3.67;2.40;;;8.30;99.90;;;;;;4867424;29;20751;-78
2021/03/30 03:55:08;;;;;;;3.70;2.35;;;8.20;99.90;;;;;;4840437;29;20636;-78
2021/03/30 03:57:47;;;;;;;3.35;2.22;;;8.20;99.90;;;;;;4806893;29;20414;-75
2021/03/30 04:00:13;;;;;;;2.60;2.35;;;8.20;99.90;;;;;;4831348;29;20403;-77
2021/03/30 04:02:44;;;;;;;2.50;2.30;;;8.10;99.90;;;;;;4822774;29;20434;-76
2021/03/30 04:05:19;;;;;;;4.70;2.10;;;8.10;99.90;;;;;;4857789;29;20418;-74
2021/03/30 04:07:57;;;;;;;2.47;2.20;;;8.10;99.90;;;;;;4851833;29;20422;-76
2021/03/30 04:10:23;;;;;;;2.60;2.40;;;8.20;99.90;;;;;;4840118;29;20430;-76
2021/03/30 04:12:49;;;;;;;2.50;2.30;;;8.00;99.90;;;;;;4831993;29;20923;-75
2021/03/30 04:15:22;;;;;;;2.17;2.00;;;8.00;99.90;;;;;;4827125;29;20426;-77
2021/03/30 04:17:48;;;;;;;2.78;2.08;;;8.00;99.90;;;;;;4825124;29;20486;-80
2021/03/30 04:20:15;;;;;;;2.13;2.00;;;8.00;99.90;;;;;;4841521;29;20903;-77
2021/03/30 04:22:47;;;;;;;1.98;1.88;;;8.00;99.90;;;;;;4844184;29;20419;-79
2021/03/30 04:25:13;;;;;;;2.67;2.20;;;8.10;99.90;;;;;;4839938;29;21322;-75
2021/03/30 04:27:39;;;;;;;2.83;2.20;;;8.00;99.90;;;;;;4839939;29;20426;-81
2021/03/30 04:30:05;;;;;;;2.20;2.00;;;8.00;99.90;;;;;;4828191;29;20422;-77
2021/03/30 04:32:31;;;;;;;2.17;1.98;;;8.10;99.90;;;;;;4817962;29;20437;-79
2021/03/30 04:34:57;;;;;;;2.95;2.40;;;8.10;99.90;;;;;;4825626;29;20503;-79
2021/03/30 04:37:22;;;;;;;1.87;1.73;;;8.10;99.90;;;;;;4828329;29;20414;-78
2021/03/30 04:39:48;;;;;;;2.20;1.80;;;8.10;99.90;;;;;;4840713;29;20486;-78
2021/03/30 04:42:14;;;;;;;2.40;2.17;;;8.20;99.90;;;;;;4835756;29;20709;-77
2021/03/30 04:44:40;;;;;;;7.10;1.93;;;8.20;99.90;;;;;;4856550;29;20544;-81
2021/03/30 04:47:05;;;;;;;1.85;1.70;;;8.30;99.90;;;;;;4855460;29;20402;-79
2021/03/30 04:49:31;;;;;;;2.07;1.77;;;8.30;99.90;;;;;;4854715;29;20422;-84
2021/03/30 04:51:57;;;;;;;2.22;1.85;;;8.40;99.90;;;;;;4859365;29;20393;-77
2021/03/30 04:54:22;;;;;;;3.22;2.30;;;8.40;99.90;;;;;;4859187;29;20434;-77
2021/03/30 04:56:48;;;;;;;2.77;2.30;;;8.30;99.90;;;;;;4842227;29;20977;-79
2021/03/30 04:59:14;;;;;;;2.30;2.10;;;8.30;99.90;;;;;;4840297;29;20417;-80
2021/03/30 05:01:40;;;;;;;2.55;2.25;;;8.20;99.90;;;;;;4837024;29;20416;-79
2021/03/30 05:04:06;;;;;;;2.17;2.03;;;8.20;99.90;;;;;;4842024;29;20422;-75
2021/03/30 05:06:32;;;;;;;4.07;2.42;;;8.20;99.90;;;;;;4854461;29;20403;-76
2021/03/30 05:08:57;;;;;;;2.13;1.92;;;8.20;99.90;;;;;;4840294;29;20414;-77
2021/03/30 05:11:23;;;;;;;2.40;2.20;;;8.20;99.90;;;;;;4825550;29;20421;-75
2021/03/30 05:13:49;;;;;;;2.43;2.23;;;8.10;99.90;;;;;;4817383;29;20424;-78
2021/03/30 05:16:14;;;;;;;1.70;1.60;;;8.20;99.90;;;;;;4840533;29;20494;-77
2021/03/30 05:18:41;;;;;;;4.53;2.13;;;8.20;99.90;;;;;;4838326;29;20408;-74
2021/03/30 05:21:07;;;;;;;2.63;1.90;;;8.10;99.90;;;;;;4851392;29;20990;-73
2021/03/30 05:23:33;;;;;;;2.75;2.10;;;8.10;99.90;;;;;;4836403;29;20433;-73
2021/03/30 05:25:59;;;;;;;1.85;1.70;;;8.20;99.90;;;;;;4839790;29;20490;-76
2021/03/30 05:28:24;;;;;;;2.53;2.33;;;8.20;99.90;;;;;;4837677;29;20456;-80
2021/03/30 05:30:50;;;;;;;2.53;2.27;;;8.10;99.90;;;;;;4844941;29;20492;-73
2021/03/30 05:33:16;;;;;;;3.88;2.20;;;8.10;99.90;;;;;;4845168;29;20426;-76
2021/03/30 05:35:41;;;;;;;4.33;2.20;;;8.20;99.90;;;;;;4808116;29;21116;-75
2021/03/30 05:38:07;;;;;;;2.67;2.20;;;8.10;99.90;;;;;;4840218;29;20480;-76
2021/03/30 05:40:33;;;;;;;2.35;2.03;;;8.20;99.90;;;;;;4839231;29;20398;-75
2021/03/30 05:42:58;;;;;;;2.20;2.00;;;8.20;99.90;;;;;;4838833;29;20916;-76
2021/03/30 05:45:24;;;;;;;2.20;2.00;;;8.20;99.90;;;;;;4838335;29;20489;-76
2021/03/30 05:47:50;;;;;;;2.80;2.20;;;8.20;99.90;;;;;;4823616;29;20414;-79
2021/03/30 05:50:17;;;;;;;2.13;1.90;;;8.30;99.90;;;;;;4842383;29;20466;-77
2021/03/30 05:55:24;;;;;;;2.63;2.20;;;8.40;99.90;;;;;;4855016;29;20880;-81
2021/03/30 05:57:52;;;;;;;2.00;1.90;;;8.40;99.90;;;;;;4835469;29;20831;-75
2021/03/30 06:00:23;;;;;;;4.78;2.15;;;8.50;99.90;;;;;;4838685;29;20402;-76
2021/03/30 06:02:50;;;;;;;2.20;2.00;;;8.50;99.90;;;;;;4821109;29;20829;-77
2021/03/30 06:05:16;;;;;;;2.80;2.45;;;8.50;99.90;;;;;;4839444;29;20769;-78
2021/03/30 06:07:42;;;;;;;2.75;2.45;;;8.60;99.90;;;;;;4838656;29;20411;-76
2021/03/30 06:10:09;;;;;;;2.75;2.38;;;8.60;99.90;;;;;;4856499;29;20415;-75
2021/03/30 06:12:35;;;;;;;3.60;2.58;;;8.60;99.90;;;;;;4860864;29;20410;-77
2021/03/30 06:15:02;;;;;;;3.30;2.57;;;8.80;99.90;;;;;;4838084;29;20940;-75
2021/03/30 06:17:28;;;;;;;3.90;2.58;;;8.90;99.90;;;;;;4838152;29;20415;-78
2021/03/30 06:19:55;;;;;;;3.97;2.73;;;8.90;99.90;;;;;;4838929;29;20428;-75
2021/03/30 06:22:23;;;;;;;2.60;2.40;;;9.00;99.90;;;;;;4853532;29;20410;-75
2021/03/30 06:24:51;;;;;;;3.15;2.60;;;9.20;99.90;;;;;;4853957;29;20434;-77
2021/03/30 06:27:25;;;;;;;2.92;2.50;;;9.30;99.90;;;;;;4838869;29;20507;-78
2021/03/30 06:29:52;;;;;;;4.15;2.70;;;9.40;99.90;;;;;;4822350;29;20440;-77
2021/03/30 06:32:22;;;;;;;3.45;2.60;;;9.60;99.90;;;;;;4834047;29;20414;-79
2021/03/30 06:34:50;;;;;;;4.32;2.90;;;9.70;99.90;;;;;;4840924;29;20421;-76
2021/03/30 06:37:28;;;;;;;5.07;3.20;;;9.90;99.90;;;;;;4852367;29;20413;-83
2021/03/30 06:40:18;;;;;;;5.35;2.92;;;10.00;99.90;;;;;;4854393;29;20426;-79
2021/03/30 06:42:54;;;;;;;4.97;3.53;;;10.20;99.90;;;;;;4823451;29;20491;-80
2021/03/30 06:45:27;;;;;;;4.57;3.30;;;10.30;99.90;;;;;;4831767;29;20422;-81
2021/03/30 06:47:55;;;;;;;2.97;2.70;;;10.50;99.90;;;;;;4835203;29;20785;-77
2021/03/30 06:50:24;;;;;;;3.40;2.70;;;10.60;99.90;;;;;;4840061;29;20412;-78
2021/03/30 06:52:50;;;;;;;3.22;2.92;;;10.80;99.90;;;;;;4834045;29;20410;-75
2021/03/30 06:55:24;;;;;;;4.97;3.03;;;10.90;99.90;;;;;;4841587;29;20422;-80
2021/03/30 06:57:50;;;;;;;4.97;2.88;;;11.10;99.90;;;;;;4824650;29;20402;-76
2021/03/30 07:00:24;;;;;;;4.57;2.75;;;11.20;99.90;;;;;;4835301;29;20956;-75
2021/03/30 07:02:52;;;;;;;3.85;2.70;;;11.40;99.90;;;;;;4851702;29;20422;-77
2021/03/30 07:05:21;;;;;;;2.70;2.50;;;11.50;99.90;;;;;;4838100;29;20426;-76
2021/03/30 07:07:50;;;;;;;3.00;2.70;;;11.70;99.90;;;;;;4856608;29;20422;-73
2021/03/30 07:10:15;;;;;;;3.22;2.63;;;11.80;99.90;;;;;;4830653;29;20434;-74
2021/03/30 07:12:41;;;;;;;3.80;2.90;;;12.00;99.90;;;;;;4826195;29;20920;-75
2021/03/30 07:15:08;;;;;;;4.00;3.20;;;12.20;99.90;;;;;;4830474;29;20400;-73
2021/03/30 07:17:34;;;;;;;5.15;2.97;;;12.30;99.90;;;;;;4852572;29;20425;-73
2021/03/30 07:20:00;;;;;;;4.35;3.15;;;12.50;99.90;;;;;;4838197;29;20460;-73
2021/03/30 07:22:26;;;;;;;4.68;3.15;;;12.70;99.90;;;;;;4824959;29;20429;-74
2021/03/30 07:25:05;;;;;;;3.50;3.20;;;12.80;99.90;;;;;;4840368;29;20947;-73
2021/03/30 07:27:46;;;;;;;4.45;3.30;;;12.90;99.90;;;;;;4845930;29;20493;-77
2021/03/30 07:30:13;;;;;;;3.42;3.10;;;13.00;99.90;;;;;;4849585;29;20860;-73
2021/03/30 07:33:00;;;;;;;4.30;3.17;;;13.10;99.90;;;;;;4840171;29;20930;-76
2021/03/30 07:35:27;;;;;;;3.97;3.50;;;13.20;99.90;;;;;;4849733;29;20939;-76
2021/03/30 07:38:20;;;;;;;4.47;3.28;;;13.40;99.90;;;;;;4825025;29;20476;-73
2021/03/30 07:40:47;;;;;;;5.00;3.55;;;13.60;99.90;;;;;;4836408;29;20946;-74
2021/03/30 07:43:26;;;;;;;4.63;3.57;;;13.70;99.90;;;;;;4836978;29;20410;-73
2021/03/30 07:45:53;;;;;;;3.05;2.75;;;13.90;99.90;;;;;;4846414;29;20447;-73
2021/03/30 07:48:20;;;;;;;4.40;3.13;;;14.00;99.90;;;;;;4825933;29;20400;-74
2021/03/30 07:50:54;;;;;;;4.63;3.50;;;14.20;99.90;;;;;;4826872;29;21416;-73
2021/03/30 07:53:42;;;;;;;3.80;3.38;;;14.30;99.90;;;;;;4857884;29;20406;-74
2021/03/30 07:56:24;;;;;;;3.45;3.15;;;14.40;99.90;;;;;;4836680;29;20957;-74
2021/03/30 07:58:50;;;;;;;4.93;2.92;;;14.50;99.90;;;;;;4851719;29;20407;-73
2021/03/30 08:01:21;;;;;;;3.50;3.20;;;14.60;99.90;;;;;;4836815;29;20429;-74
2021/03/30 08:03:53;;;;;;;6.65;3.40;;;14.70;99.90;;;;;;4826880;29;20436;-78
2021/03/30 08:06:23;;;;;;;5.78;3.65;;;14.70;99.90;;;;;;4825437;29;20987;-73
2021/03/30 08:08:51;;;;;;;3.60;3.30;;;14.80;99.90;;;;;;4851827;29;20406;-74
2021/03/30 08:11:40;;;;;;;3.65;3.00;;;14.90;99.90;;;;;;4851711;29;20453;-73
2021/03/30 08:14:18;;;;;;;3.80;3.47;;;15.10;99.90;;;;;;4870986;29;20414;-75
2021/03/30 08:16:50;;;;;;;4.68;4.25;;;15.20;99.90;;;;;;4851264;29;20418;-75
2021/03/30 08:19:16;;;;;;;5.10;4.03;;;15.30;99.90;;;;;;4821951;29;20496;-75
2021/03/30 08:21:59;;;;;;;6.80;4.27;;;15.30;99.90;;;;;;4846477;29;20412;-73
2021/03/30 08:24:25;;;;;;;4.82;3.88;;;15.40;99.90;;;;;;4837764;29;20428;-75
2021/03/30 08:26:51;;;;;;;4.53;3.97;;;15.50;99.90;;;;;;4848046;29;20400;-75
2021/03/30 08:29:23;;;;;;;4.63;3.63;;;15.60;99.90;;;;;;4840332;29;20414;-75
2021/03/30 08:31:50;;;;;;;4.93;3.70;;;15.60;99.90;;;;;;4859751;29;20420;-78
2021/03/30 08:34:19;;;;;;;4.28;3.70;;;15.80;99.90;;;;;;4841361;29;20420;-78
2021/03/30 08:36:55;;;;;;;4.85;3.72;;;15.90;99.90;;;;;;4837167;29;20421;-78
2021/03/30 08:39:21;;;;;;;4.00;3.58;;;16.00;99.90;;;;;;4847087;29;20422;-78
2021/03/30 08:41:47;;;;;;;3.45;3.15;;;16.10;99.90;;;;;;4867330;29;20415;-78
2021/03/30 08:44:13;;;;;;;3.53;3.20;;;16.20;99.90;;;;;;4852097;29;20597;-77
2021/03/30 08:46:40;;;;;;;4.55;3.58;;;16.40;99.90;;;;;;4852298;29;20416;-79
2021/03/30 08:49:36;;;;;;;5.22;3.95;;;16.60;99.90;;;;;;4837788;29;20449;-76
2021/03/30 08:52:10;;;;;;;4.93;3.53;;;16.60;99.50;;;;;;4858398;29;20492;-75
2021/03/30 08:54:45;;;;;;;4.82;3.70;;;16.60;99.90;;;;;;4839486;29;20425;-75
2021/03/30 08:57:12;;;;;;;4.63;3.63;;;16.60;99.70;;;;;;4831896;29;20915;-76
2021/03/30 08:59:38;;;;;;;4.35;3.75;;;16.80;99.70;;;;;;4840533;29;20461;-75
2021/03/30 09:02:05;;;;;;;5.78;4.20;;;16.90;99.00;;;;;;4829028;29;20429;-75
2021/03/30 09:04:43;;;;;;;4.50;4.10;;;17.00;98.30;;;;;;4822006;29;20422;-76
2021/03/30 09:07:09;;;;;;;5.30;3.63;;;17.20;97.00;;;;;;4854541;29;20423;-75
2021/03/30 09:09:36;;;;;;;5.60;4.37;;;17.20;95.90;;;;;;4839164;29;20494;-76
2021/03/30 09:12:07;;;;;;;5.30;4.05;;;17.30;95.00;;;;;;4859274;29;20910;-76
2021/03/30 09:14:32;;;;;;;4.13;3.72;;;17.50;93.90;;;;;;4841546;29;20441;-75
2021/03/30 09:17:08;;;;;;;5.63;3.97;;;17.50;92.60;;;;;;4831147;29;20440;-75
2021/03/30 09:19:43;;;;;;;6.05;4.30;;;17.50;92.00;;;;;;4838566;29;20573;-74
2021/03/30 09:22:20;;;;;;;5.43;4.23;;;17.60;91.90;;;;;;4836128;29;20412;-75
2021/03/30 09:27:38;;;;;;;4.10;3.70;;;17.80;91.20;;;;;;4856611;29;20946;-75
2021/03/30 09:30:09;;;;;;;5.32;3.72;;;17.90;86.90;;;;;;4851740;29;20457;-74
2021/03/30 09:32:36;;;;;;;4.45;3.88;;;18.10;83.90;;;;;;4842346;29;20442;-75
2021/03/30 09:35:06;;;;;;;4.13;3.45;;;18.10;86.50;;;;;;4851816;29;20912;-76
2021/03/30 09:37:43;;;;;;;5.82;4.05;;;18.20;82.20;;;;;;4839872;29;20410;-75
2021/03/30 09:40:11;;;;;;;4.60;4.00;;;18.20;80.80;;;;;;4838846;29;20416;-75
2021/03/30 09:42:37;;;;;;;4.05;3.45;;;18.30;84.50;;;;;;4840030;29;20411;-75
2021/03/30 09:45:03;;;;;;;4.95;3.58;;;18.30;80.20;;;;;;4838840;29;20445;-75
2021/03/30 09:47:30;;;;;;;5.07;3.35;;;18.30;79.60;;;;;;4838276;29;20414;-74
2021/03/30 09:49:55;;;;;;;6.67;3.57;;;18.50;77.80;;;;;;4838168;29;20426;-74
2021/03/30 09:52:21;;;;;;;4.22;3.20;;;18.60;76.00;;;;;;4843410;29;20435;-75
2021/03/30 09:54:47;;;;;;;4.30;3.47;;;18.70;77.50;;;;;;4838095;29;20421;-75
2021/03/30 09:57:13;;;;;;;4.30;3.55;;;18.80;74.00;;;;;;4837241;29;20418;-74
2021/03/30 09:59:43;;;;;;;5.38;3.80;;;18.90;73.20;;;;;;4838619;29;20414;-74
2021/03/30 10:02:09;;;;;;;6.05;3.60;;;18.90;73.10;;;;;;4852893;29;20459;-75
2021/03/30 10:04:35;;;;;;;3.88;3.35;;;19.10;72.80;;;;;;4838579;29;20453;-74
2021/03/30 10:07:15;;;;;;;6.00;3.63;;;19.20;72.00;;;;;;4852236;29;20569;-74
2021/03/30 10:10:02;;;;;;;3.88;3.47;;;19.30;71.90;;;;;;4833855;29;20426;-74
2021/03/30 10:12:34;;;;;;;4.18;3.55;;;19.40;72.10;;;;;;4823368;29;20767;-74
2021/03/30 10:15:00;;;;;;;3.72;3.42;;;19.60;71.40;;;;;;4839009;29;20414;-75
2021/03/30 10:17:27;;;;;;;4.97;4.00;;;19.60;73.10;;;;;;4835593;29;20426;-76
2021/03/30 10:19:53;;;;;;;4.43;3.67;;;19.70;70.80;;;;;;4836219;29;20431;-74
2021/03/30 10:22:25;;;;;;;4.15;3.70;;;19.90;70.30;;;;;;4844420;29;20643;-74
2021/03/30 10:25:10;;;;;;;4.10;3.58;;;19.90;71.60;;;;;;4849669;29;20766;-75
2021/03/30 10:27:37;;;;;;;4.50;4.00;;;20.10;70.20;;;;;;4854476;29;20489;-74
2021/03/30 10:30:05;;;;;;;4.63;4.00;;;20.20;70.80;;;;;;4838858;29;20418;-75
2021/03/30 10:32:48;;;;;;;4.88;3.85;;;20.20;69.10;;;;;;4843555;29;20418;-75
2021/03/30 10:35:13;;;;;;;4.60;4.15;;;20.50;70.60;;;;;;4852268;29;20437;-75
2021/03/30 10:37:40;;;;;;;4.20;3.80;;;20.70;67.70;;;;;;4852156;29;20418;-74
2021/03/30 10:40:07;;;;;;;6.18;4.18;;;20.70;66.20;;;;;;4838452;29;20430;-74
2021/03/30 10:42:37;;;;;;;4.45;3.20;;;20.70;64.30;;;;;;4838088;29;20410;-73
2021/03/30 10:45:05;;;;;;;5.70;3.85;;;20.90;65.70;;;;;;4835616;29;20469;-75
2021/03/30 10:47:33;;;;;;;4.77;4.10;;;20.90;64.70;;;;;;4836120;29;20427;-75
2021/03/30 10:49:59;;;;;;;4.28;3.88;;;21.00;63.40;;;;;;4819624;29;20447;-73
2021/03/30 10:52:33;;;;;;;4.45;3.63;;;21.00;61.10;;;;;;4833090;29;20406;-73
2021/03/30 10:55:02;;;;;;;4.88;3.70;;;21.10;62.70;;;;;;4822558;29;20467;-73
2021/03/30 10:57:40;;;;;;;4.20;3.40;;;21.50;61.40;;;;;;4834301;29;20419;-73
2021/03/30 11:00:07;;;;;;;5.03;3.63;;;21.70;61.50;;;;;;4840672;29;20486;-73
2021/03/30 11:02:33;;;;;;;3.42;2.90;;;22.00;60.40;;;;;;4806462;29;20422;-72
2021/03/30 11:04:59;;;;;;;3.88;3.30;;;22.20;61.90;;;;;;4833981;29;21154;-73
2021/03/30 11:07:25;;;;;;;4.10;3.53;;;22.50;59.20;;;;;;4830735;29;20425;-73
2021/03/30 11:09:50;;;;;;;5.35;3.60;;;22.50;57.90;;;;;;4821673;29;20426;-75
2021/03/30 11:12:16;;;;;;;4.10;3.53;;;22.40;57.80;;;;;;4836069;29;20408;-75
2021/03/30 11:14:43;;;;;;;3.47;3.17;;;22.40;57.00;;;;;;4836324;29;21078;-74
2021/03/30 11:17:08;;;;;;;3.53;3.05;;;22.50;58.20;;;;;;4826377;29;20418;-75
2021/03/30 11:19:35;;;;;;;6.10;3.35;;;22.70;56.40;;;;;;4844502;29;20417;-75
2021/03/30 11:22:00;;;;;;;5.18;3.30;;;22.90;55.40;;;;;;4835465;29;20498;-75
2021/03/30 11:24:32;;;;;;;3.53;3.22;;;23.00;56.00;;;;;;4842252;29;20422;-75
2021/03/30 11:26:58;;;;;;;4.10;3.70;;;23.00;57.10;;;;;;4825117;29;20497;-75
2021/03/30 11:29:30;;;;;;;4.38;3.67;;;22.90;55.70;;;;;;4839792;29;20416;-73
2021/03/30 11:39:50;;;;;;;4.00;3.60;;;22.80;52.50;;;;;;4839416;29;20489;-73
2021/03/30 11:42:16;;;;;;;5.50;3.77;;;23.00;53.00;;;;;;4852734;29;20418;-75
2021/03/30 11:44:41;;;;;;;3.58;3.22;;;22.90;52.60;;;;;;4839106;29;20425;-74
2021/03/30 11:47:07;;;;;;;5.70;3.50;;;23.10;52.30;;;;;;4821305;29;20414;-75
2021/03/30 11:49:33;;;;;;;3.45;2.88;;;23.20;51.50;;;;;;4836488;29;20452;-75
2021/03/30 11:52:00;;;;;;;4.13;2.60;;;23.00;50.20;;;;;;4854047;29;20418;-74
2021/03/30 11:54:25;;;;;;;3.20;2.60;;;22.90;51.20;;;;;;4835819;29;20425;-74
2021/03/30 11:56:51;;;;;;;3.40;2.85;;;22.70;51.20;;;;;;4837737;29;20410;-74
2021/03/30 11:59:17;;;;;;;2.97;2.67;;;22.70;51.40;;;;;;4836222;29;20410;-76
2021/03/30 12:01:43;;;;;;;3.60;3.17;;;22.70;51.90;;;;;;4835136;29;20427;-74
2021/03/30 12:04:09;;;;;;;6.70;3.50;;;22.70;51.20;;;;;;4814873;29;20469;-74
2021/03/30 12:06:34;;;;;;;4.43;3.60;;;22.90;52.90;;;;;;4836237;29;20916;-75
2021/03/30 12:09:00;;;;;;;3.60;3.13;;;23.10;52.50;;;;;;4852871;29;20414;-74
2021/03/30 12:11:28;;;;;;;4.10;3.67;;;23.40;52.50;;;;;;4838587;29;20410;-74
2021/03/30 12:13:53;;;;;;;3.90;3.22;;;23.20;50.00;;;;;;4830144;29;21022;-75
2021/03/30 12:16:19;;;;;;;4.03;3.33;;;23.40;50.70;;;;;;4834639;29;20446;-74
2021/03/30 12:18:45;;;;;;;3.55;3.25;;;23.40;50.30;;;;;;4822820;29;20476;-75
2021/03/30 12:21:10;;;;;;;4.55;3.00;;;23.50;50.30;;;;;;4836960;29;20406;-74
2021/03/30 12:23:36;;;;;;;4.73;3.50;;;23.30;50.30;;;;;;4821541;29;20490;-73
2021/03/30 12:26:02;;;;;;;4.20;3.80;;;23.60;51.20;;;;;;4836692;29;20474;-75
2021/03/30 12:28:27;;;;;;;4.53;3.90;;;23.80;50.50;;;;;;4841722;29;20413;-74
2021/03/30 12:30:53;;;;;;;3.77;3.27;;;23.80;49.80;;;;;;4839981;29;20422;-75
2021/03/30 12:33:19;;;;;;;3.72;3.35;;;23.70;50.50;;;;;;4865196;29;20410;-75
2021/03/30 12:35:45;;;;;;;6.70;3.90;;;23.50;50.90;;;;;;4851890;29;20453;-76
2021/03/30 12:38:11;;;;;;;4.50;3.42;;;23.40;51.50;;;;;;4840533;29;20826;-78
2021/03/30 12:40:37;;;;;;;3.70;3.35;;;23.50;51.90;;;;;;4839381;29;20414;-76
2021/03/30 12:43:03;;;;;;;4.93;3.70;;;23.50;51.60;;;;;;4840709;29;20497;-75
2021/03/30 12:45:29;;;;;;;3.40;3.10;;;23.50;52.50;;;;;;4854976;29;20425;-77
2021/03/30 12:47:55;;;;;;;4.65;3.95;;;23.60;52.10;;;;;;4824497;29;20418;-75
2021/03/30 12:50:24;;;;;;;4.67;3.63;;;23.20;52.80;;;;;;4839478;29;20431;-75
2021/03/30 12:52:50;;;;;;;5.30;3.70;;;23.70;53.60;;;;;;4840641;29;20427;-75
2021/03/30 12:55:16;;;;;;;4.45;3.80;;;23.80;53.10;;;;;;4839323;29;20410;-75
2021/03/30 12:57:41;;;;;;;3.53;3.23;;;24.10;52.20;;;;;;4836783;29;20946;-75
2021/03/30 13:00:08;;;;;;;4.20;3.80;;;23.90;51.60;;;;;;4853606;29;20409;-76
2021/03/30 13:02:33;;;;;;;3.65;3.33;;;23.90;51.80;;;;;;4841106;29;21037;-76
2021/03/30 13:04:59;;;;;;;4.93;3.33;;;23.90;53.20;;;;;;4855200;29;20431;-77
2021/03/30 13:07:25;;;;;;;3.63;3.22;;;23.70;53.00;;;;;;4839131;29;20397;-75
2021/03/30 13:09:51;;;;;;;4.17;3.50;;;23.80;53.50;;;;;;4823977;29;21164;-75
2021/03/30 13:12:16;;;;;;;4.25;3.80;;;24.10;52.60;;;;;;4842939;29;20772;-76